createdAt,value
2022-10-27T00:00:17.167Z,14.08
2022-10-27T00:05:41.421Z,14.10
2022-10-27T00:10:45.750Z,14.09
2022-10-27T00:15:57.088Z,14.08
2022-10-27T00:21:01.827Z,14.08
2022-10-27T00:26:06.256Z,14.07
2022-10-27T00:31:13.167Z,14.07
2022-10-27T00:36:18.070Z,14.07
2022-10-27T00:41:26.649Z,14.07
2022-10-27T00:46:34.932Z,14.06
2022-10-27T00:51:41.046Z,14.06
2022-10-27T00:56:46.186Z,14.06
2022-10-27T01:01:51.829Z,14.05
2022-10-27T01:06:55.946Z,14.05
2022-10-27T01:12:00.002Z,14.05
2022-10-27T01:17:08.589Z,14.05
2022-10-27T01:22:15.105Z,14.05
2022-10-27T01:27:31.917Z,14.05
2022-10-27T01:32:39.426Z,14.05
2022-10-27T01:37:46.301Z,14.05
2022-10-27T01:42:51.552Z,14.03
2022-10-27T01:47:56.999Z,14.03
2022-10-27T01:53:01.310Z,14.03
2022-10-27T01:58:19.427Z,14.03
2022-10-27T02:03:27.147Z,14.03
2022-10-27T02:08:35.301Z,14.02
2022-10-27T02:13:41.062Z,14.02
2022-10-27T02:18:48.443Z,14.02
2022-10-27T02:23:53.066Z,14.02
2022-10-27T02:29:00.177Z,14.00
2022-10-27T02:34:05.078Z,14.00
2022-10-27T02:39:09.356Z,14.00
2022-10-27T02:44:13.692Z,13.99
2022-10-27T02:49:17.841Z,13.99
2022-10-27T02:54:21.756Z,13.98
2022-10-27T02:59:25.960Z,13.98
2022-10-27T03:04:30.074Z,13.99
2022-10-27T03:09:34.338Z,13.98
2022-10-27T03:14:38.777Z,13.97
2022-10-27T03:19:43.110Z,13.98
2022-10-27T03:24:46.949Z,13.97
2022-10-27T03:29:51.067Z,13.98
2022-10-27T03:34:55.088Z,13.98
2022-10-27T03:39:59.148Z,13.97
2022-10-27T03:45:03.243Z,13.97
2022-10-27T03:50:08.121Z,13.97
2022-10-27T03:55:11.880Z,13.97
2022-10-27T04:00:17.409Z,13.95
2022-10-27T04:05:21.449Z,13.97
2022-10-27T04:10:25.516Z,13.96
2022-10-27T04:15:30.166Z,13.95
2022-10-27T04:20:34.550Z,13.95
2022-10-27T04:25:38.840Z,13.97
2022-10-27T04:30:43.267Z,13.97
2022-10-27T04:35:47.607Z,13.97
2022-10-27T04:40:51.837Z,13.96
2022-10-27T04:45:55.857Z,13.96
2022-10-27T04:50:59.887Z,13.96
2022-10-27T04:56:04.069Z,13.95
2022-10-27T05:01:08.817Z,13.95
2022-10-27T05:06:13.196Z,13.94
2022-10-27T05:11:17.738Z,13.95
2022-10-27T05:16:21.977Z,13.95
2022-10-27T05:21:26.107Z,13.94
2022-10-27T05:26:31.899Z,13.94
2022-10-27T05:31:38.869Z,13.94
2022-10-27T05:36:43.962Z,13.94
2022-10-27T05:41:48.246Z,13.93
2022-10-27T05:46:52.327Z,13.94
2022-10-27T05:51:56.331Z,13.93
2022-10-27T05:57:00.227Z,13.93
2022-10-27T06:02:04.629Z,13.94
2022-10-27T06:07:09.001Z,13.93
2022-10-27T06:12:12.927Z,13.92
2022-10-27T06:17:16.838Z,13.93
2022-10-27T06:22:21.207Z,13.93
2022-10-27T06:27:25.375Z,13.92
2022-10-27T06:32:29.740Z,13.93
2022-10-27T06:37:33.701Z,13.92
2022-10-27T06:42:49.035Z,13.92
2022-10-27T06:48:01.677Z,13.94
2022-10-27T06:53:06.009Z,13.93
2022-10-27T06:58:10.566Z,13.94
2022-10-27T07:03:14.751Z,13.94
2022-10-27T07:08:19.016Z,13.95
2022-10-27T07:13:23.391Z,13.94
2022-10-27T07:18:27.687Z,13.95
2022-10-27T07:23:32.147Z,13.96
2022-10-27T07:28:35.907Z,13.97
2022-10-27T07:33:40.320Z,13.98
2022-10-27T07:38:44.644Z,13.98
2022-10-27T07:43:48.797Z,13.98
2022-10-27T07:48:52.973Z,14.00
2022-10-27T07:53:58.147Z,14.00
2022-10-27T07:59:02.717Z,14.03
2022-10-27T08:04:07.102Z,14.03
2022-10-27T08:09:15.232Z,14.04
2022-10-27T08:14:21.967Z,14.05
2022-10-27T08:19:26.266Z,14.06
2022-10-27T08:24:30.277Z,14.07
2022-10-27T08:29:34.540Z,14.09
2022-10-27T08:34:38.618Z,14.10
2022-10-27T08:39:42.547Z,14.11
2022-10-27T08:44:51.087Z,14.14
2022-10-27T08:49:56.848Z,14.18
2022-10-27T08:55:02.061Z,14.20
2022-10-27T09:00:07.517Z,14.22
2022-10-27T09:05:22.252Z,14.26
2022-10-27T09:10:38.712Z,14.31
2022-10-27T09:15:44.949Z,14.36
2022-10-27T09:20:55.044Z,14.36
2022-10-27T09:25:59.937Z,14.42
2022-10-27T09:31:05.059Z,14.48
2022-10-27T09:36:14.686Z,14.52
2022-10-27T09:41:18.909Z,14.56
2022-10-27T09:46:24.777Z,14.59
2022-10-27T09:51:34.331Z,14.61
2022-10-27T09:56:38.768Z,14.61
2022-10-27T10:01:51.996Z,14.61
2022-10-27T10:06:56.978Z,14.61
2022-10-27T10:12:22.943Z,14.58
2022-10-27T10:17:29.507Z,14.59
2022-10-27T10:22:36.369Z,14.57
2022-10-27T10:27:47.818Z,14.55
2022-10-27T10:32:53.847Z,14.55
2022-10-27T10:38:02.679Z,14.55
2022-10-27T10:43:18.168Z,14.53
2022-10-27T10:48:29.696Z,14.55
2022-10-27T10:53:36.137Z,14.53
2022-10-27T10:58:42.847Z,14.51
2022-10-27T11:03:48.666Z,14.51
2022-10-27T11:08:57.907Z,14.51
2022-10-27T11:14:03.705Z,14.51
2022-10-27T11:19:11.111Z,14.49
2022-10-27T11:24:17.657Z,14.49
2022-10-27T11:29:26.486Z,14.48
2022-10-27T11:34:35.597Z,14.48
2022-10-27T11:39:45.652Z,14.47
2022-10-27T11:44:54.396Z,14.46
2022-10-27T11:50:01.883Z,14.46
2022-10-27T11:55:09.152Z,14.43
2022-10-27T12:00:16.882Z,14.42
2022-10-27T12:05:22.857Z,14.43
2022-10-27T12:10:34.641Z,14.42
2022-10-27T12:15:43.307Z,14.42
2022-10-27T12:20:51.740Z,14.41
2022-10-27T12:26:01.059Z,14.40
2022-10-27T12:31:08.558Z,14.39
2022-10-27T12:36:18.630Z,14.38
2022-10-27T12:41:28.673Z,14.38
2022-10-27T12:46:41.950Z,14.37
2022-10-27T12:51:51.187Z,14.37
2022-10-27T12:57:01.977Z,14.36
2022-10-27T13:02:10.522Z,14.36
2022-10-27T13:07:28.675Z,14.35
2022-10-27T13:12:44.477Z,14.36
2022-10-27T13:17:55.235Z,14.35
2022-10-27T13:23:02.069Z,14.34
2022-10-27T13:28:08.768Z,14.33
2022-10-27T13:33:27.311Z,14.32
2022-10-27T13:38:31.950Z,14.33
2022-10-27T13:43:44.271Z,14.33
2022-10-27T13:48:49.386Z,14.32
2022-10-27T13:53:53.927Z,14.32
2022-10-27T13:59:02.077Z,14.30
2022-10-27T14:04:20.960Z,14.30
2022-10-27T14:09:30.606Z,14.29
2022-10-27T14:14:35.596Z,14.29
2022-10-27T14:19:40.118Z,14.29
2022-10-27T14:24:50.217Z,14.28
2022-10-27T14:30:04.787Z,14.28
2022-10-27T14:35:21.606Z,14.29
2022-10-27T14:40:31.544Z,14.29
2022-10-27T14:45:36.230Z,14.29
2022-10-27T14:50:42.046Z,14.27
2022-10-27T14:55:46.110Z,14.27
2022-10-27T15:00:51.567Z,14.26
2022-10-27T15:05:55.873Z,14.27
2022-10-27T15:11:00.666Z,14.26
2022-10-27T15:16:11.190Z,14.26
2022-10-27T15:21:16.426Z,14.26
2022-10-27T15:26:24.474Z,14.25
2022-10-27T15:31:29.311Z,14.25
2022-10-27T15:36:33.944Z,14.24
2022-10-27T15:41:47.494Z,14.23
2022-10-27T15:46:51.736Z,14.23
2022-10-27T15:51:56.585Z,14.24
2022-10-27T15:57:01.756Z,14.25
2022-10-27T16:02:19.940Z,14.24
2022-10-27T16:07:30.620Z,14.24
2022-10-27T16:12:41.816Z,14.23
2022-10-27T16:17:48.560Z,14.22
2022-10-27T16:22:53.319Z,14.22
2022-10-27T16:27:58.309Z,14.21
2022-10-27T16:33:04.050Z,14.22
2022-10-27T16:38:09.407Z,14.21
2022-10-27T16:43:19.886Z,14.20
2022-10-27T16:48:24.659Z,14.20
2022-10-27T16:53:29.137Z,14.19
2022-10-27T16:58:35.572Z,14.19
2022-10-27T17:03:39.890Z,14.19
2022-10-27T17:08:44.291Z,14.19
2022-10-27T17:13:48.936Z,14.19
2022-10-27T17:18:53.620Z,14.19
2022-10-27T17:23:57.811Z,14.19
2022-10-27T17:29:02.037Z,14.18
2022-10-27T17:34:06.962Z,14.18
2022-10-27T17:39:11.422Z,14.18
2022-10-27T17:44:15.958Z,14.18
2022-10-27T17:49:20.131Z,14.17
2022-10-27T17:54:24.547Z,14.17
2022-10-27T17:59:29.067Z,14.17
2022-10-27T18:04:35.430Z,14.17
2022-10-27T18:09:39.778Z,14.17
2022-10-27T18:14:44.425Z,14.17
2022-10-27T18:19:48.687Z,14.17
2022-10-27T18:24:52.920Z,14.16
2022-10-27T18:29:56.947Z,14.17
2022-10-27T18:35:01.290Z,14.17
2022-10-27T18:40:06.021Z,14.17
2022-10-27T18:45:10.686Z,14.16
2022-10-27T18:50:15.707Z,14.16
2022-10-27T19:00:28.910Z,14.16
2022-10-27T19:05:33.907Z,14.17
2022-10-27T19:10:38.382Z,14.16
2022-10-27T19:15:42.594Z,14.16
2022-10-27T19:20:46.751Z,14.15
2022-10-27T19:25:51.278Z,14.15
2022-10-27T19:30:55.497Z,14.15
2022-10-27T19:36:04.107Z,14.15
2022-10-27T19:41:11.657Z,14.15
2022-10-27T19:46:15.536Z,14.15
2022-10-27T19:51:19.907Z,14.14
2022-10-27T19:56:24.580Z,14.14
2022-10-27T20:01:29.558Z,14.14
2022-10-27T20:06:33.947Z,14.14
2022-10-27T20:11:38.017Z,14.14
2022-10-27T20:16:42.889Z,14.14
2022-10-27T20:21:47.421Z,14.13
2022-10-27T20:32:01.330Z,14.14
2022-10-27T20:37:05.462Z,14.14
2022-10-27T20:42:09.706Z,14.14
2022-10-27T20:47:13.686Z,14.13
2022-10-27T20:52:17.846Z,14.13
2022-10-27T20:57:22.360Z,14.13
2022-10-27T21:02:26.410Z,14.12
2022-10-27T21:07:30.829Z,14.13
2022-10-27T21:12:35.984Z,14.12
2022-10-27T21:17:40.266Z,14.12
2022-10-27T21:22:44.567Z,14.12
2022-10-27T21:27:52.681Z,14.12
2022-10-27T21:32:57.097Z,14.12
2022-10-27T21:38:01.790Z,14.12
2022-10-27T21:43:05.890Z,14.13
2022-10-27T21:48:10.247Z,14.13
2022-10-27T21:53:14.430Z,14.11
2022-10-27T21:58:18.557Z,14.12
2022-10-27T22:03:22.623Z,14.11
2022-10-27T22:08:26.838Z,14.10
2022-10-27T22:13:30.947Z,14.11
2022-10-27T22:18:35.276Z,14.11
2022-10-27T22:23:39.770Z,14.11
2022-10-27T22:28:44.170Z,14.11
2022-10-27T22:33:48.706Z,14.11
2022-10-27T22:38:54.180Z,14.11
2022-10-27T22:43:58.529Z,14.11
2022-10-27T22:49:03.027Z,14.11
2022-10-27T22:54:07.266Z,14.12
2022-10-27T22:59:11.827Z,14.11
2022-10-27T23:04:17.057Z,14.11
2022-10-27T23:09:21.927Z,14.10
2022-10-27T23:14:26.190Z,14.11
2022-10-27T23:19:29.897Z,14.10
2022-10-27T23:24:33.967Z,14.10
2022-10-27T23:29:38.206Z,14.10
2022-10-27T23:34:42.466Z,14.10
2022-10-27T23:39:46.595Z,14.10
2022-10-27T23:44:50.699Z,14.10
2022-10-27T23:49:54.956Z,14.09
2022-10-27T23:54:59.167Z,14.10
